sensor_id;sensor_type;location;lat;lon;timestamp;temperature;humidity
38973;DHT22;25333;50.762;4.470;2023-06-04T00:00:15;12.40;92.70
38973;DHT22;25333;50.762;4.470;2023-06-04T00:14:23;12.20;93.30
38973;DHT22;25333;50.762;4.470;2023-06-04T00:39:56;11.70;93.60
38973;DHT22;25333;50.762;4.470;2023-06-04T00:50:44;11.60;94.10
38973;DHT22;25333;50.762;4.470;2023-06-04T00:53:52;11.60;93.90
38973;DHT22;25333;50.762;4.470;2023-06-04T01:07:39;11.40;94.40
38973;DHT22;25333;50.762;4.470;2023-06-04T02:53:28;10.50;96.90
38973;DHT22;25333;50.762;4.470;2023-06-04T04:59:09;10.90;98.30
38973;DHT22;25333;50.762;4.470;2023-06-04T05:01:40;11.00;98.50
38973;DHT22;25333;50.762;4.470;2023-06-04T05:04:06;11.00;98.90
38973;DHT22;25333;50.762;4.470;2023-06-04T05:07:08;11.10;99.00
38973;DHT22;25333;50.762;4.470;2023-06-04T05:09:34;11.10;98.80
38973;DHT22;25333;50.762;4.470;2023-06-04T05:12:20;11.20;99.00
38973;DHT22;25333;50.762;4.470;2023-06-04T05:15:09;11.20;98.90
38973;DHT22;25333;50.762;4.470;2023-06-04T05:17:41;11.30;99.20
38973;DHT22;25333;50.762;4.470;2023-06-04T05:20:09;11.40;99.00
38973;DHT22;25333;50.762;4.470;2023-06-04T05:23:15;11.50;98.60
38973;DHT22;25333;50.762;4.470;2023-06-04T05:26:04;11.50;98.80
38973;DHT22;25333;50.762;4.470;2023-06-04T05:31:45;11.60;98.20
38973;DHT22;25333;50.762;4.470;2023-06-04T05:34:10;11.70;98.40
38973;DHT22;25333;50.762;4.470;2023-06-04T05:36:43;11.80;98.10
38973;DHT22;25333;50.762;4.470;2023-06-04T05:42:14;12.00;98.00
38973;DHT22;25333;50.762;4.470;2023-06-04T05:44:43;12.20;98.20
38973;DHT22;25333;50.762;4.470;2023-06-04T05:47:11;12.30;97.70
38973;DHT22;25333;50.762;4.470;2023-06-04T05:49:37;12.40;97.40
38973;DHT22;25333;50.762;4.470;2023-06-04T05:52:03;12.50;97.80
38973;DHT22;25333;50.762;4.470;2023-06-04T05:54:29;12.60;97.80
38973;DHT22;25333;50.762;4.470;2023-06-04T05:56:55;12.70;97.10
38973;DHT22;25333;50.762;4.470;2023-06-04T05:59:21;12.80;96.80
38973;DHT22;25333;50.762;4.470;2023-06-04T06:01:47;12.90;96.90
38973;DHT22;25333;50.762;4.470;2023-06-04T06:04:14;13.00;96.70
38973;DHT22;25333;50.762;4.470;2023-06-04T06:06:39;13.10;96.80
38973;DHT22;25333;50.762;4.470;2023-06-04T06:09:06;13.30;96.50
38973;DHT22;25333;50.762;4.470;2023-06-04T06:11:32;13.40;96.00
38973;DHT22;25333;50.762;4.470;2023-06-04T06:13:57;13.50;95.70
38973;DHT22;25333;50.762;4.470;2023-06-04T06:16:23;13.60;96.20
38973;DHT22;25333;50.762;4.470;2023-06-04T06:18:48;13.70;96.20
38973;DHT22;25333;50.762;4.470;2023-06-04T06:21:14;13.80;95.80
38973;DHT22;25333;50.762;4.470;2023-06-04T06:23:40;13.90;96.20
38973;DHT22;25333;50.762;4.470;2023-06-04T06:26:05;14.10;95.30
38973;DHT22;25333;50.762;4.470;2023-06-04T06:28:33;14.20;95.30
38973;DHT22;25333;50.762;4.470;2023-06-04T06:31:01;14.30;94.20
38973;DHT22;25333;50.762;4.470;2023-06-04T06:33:27;14.40;94.00
38973;DHT22;25333;50.762;4.470;2023-06-04T06:35:52;14.50;94.30
38973;DHT22;25333;50.762;4.470;2023-06-04T06:38:18;14.60;93.90
38973;DHT22;25333;50.762;4.470;2023-06-04T06:40:43;14.70;93.70
38973;DHT22;25333;50.762;4.470;2023-06-04T06:43:09;14.80;94.30
38973;DHT22;25333;50.762;4.470;2023-06-04T06:45:36;14.90;93.40
38973;DHT22;25333;50.762;4.470;2023-06-04T06:48:02;15.00;93.10
38973;DHT22;25333;50.762;4.470;2023-06-04T06:50:27;15.10;93.30
38973;DHT22;25333;50.762;4.470;2023-06-04T06:52:53;15.20;93.30
38973;DHT22;25333;50.762;4.470;2023-06-04T06:55:19;15.40;93.10
38973;DHT22;25333;50.762;4.470;2023-06-04T06:57:45;15.40;92.90
38973;DHT22;25333;50.762;4.470;2023-06-04T07:00:11;15.60;92.80
38973;DHT22;25333;50.762;4.470;2023-06-04T07:02:37;15.60;92.40
38973;DHT22;25333;50.762;4.470;2023-06-04T07:05:03;15.70;92.70
38973;DHT22;25333;50.762;4.470;2023-06-04T07:07:28;15.90;92.90
38973;DHT22;25333;50.762;4.470;2023-06-04T07:09:54;16.00;92.60
38973;DHT22;25333;50.762;4.470;2023-06-04T07:12:20;16.20;92.10
38973;DHT22;25333;50.762;4.470;2023-06-04T07:14:46;16.10;91.20
38973;DHT22;25333;50.762;4.470;2023-06-04T07:17:12;16.10;91.40
38973;DHT22;25333;50.762;4.470;2023-06-04T07:19:38;16.20;91.30
38973;DHT22;25333;50.762;4.470;2023-06-04T07:22:13;16.20;91.50
38973;DHT22;25333;50.762;4.470;2023-06-04T07:24:42;16.30;90.90
38973;DHT22;25333;50.762;4.470;2023-06-04T07:27:12;16.30;90.80
38973;DHT22;25333;50.762;4.470;2023-06-04T07:29:38;16.40;90.50
38973;DHT22;25333;50.762;4.470;2023-06-04T07:32:04;16.40;90.80
38973;DHT22;25333;50.762;4.470;2023-06-04T07:34:30;16.50;90.70
38973;DHT22;25333;50.762;4.470;2023-06-04T07:36:56;16.50;90.90
38973;DHT22;25333;50.762;4.470;2023-06-04T07:39:21;16.50;90.20
38973;DHT22;25333;50.762;4.470;2023-06-04T07:41:47;16.50;90.30
38973;DHT22;25333;50.762;4.470;2023-06-04T07:44:13;16.50;89.90
38973;DHT22;25333;50.762;4.470;2023-06-04T07:46:38;16.60;90.40
38973;DHT22;25333;50.762;4.470;2023-06-04T07:49:04;16.60;90.10
38973;DHT22;25333;50.762;4.470;2023-06-04T07:51:30;16.70;89.70
38973;DHT22;25333;50.762;4.470;2023-06-04T07:53:56;16.70;90.00
38973;DHT22;25333;50.762;4.470;2023-06-04T07:56:23;16.80;88.70
38973;DHT22;25333;50.762;4.470;2023-06-04T07:58:48;16.90;89.40
38973;DHT22;25333;50.762;4.470;2023-06-04T08:01:14;17.00;90.00
38973;DHT22;25333;50.762;4.470;2023-06-04T08:03:42;17.10;88.20
38973;DHT22;25333;50.762;4.470;2023-06-04T08:09:35;17.30;90.00
38973;DHT22;25333;50.762;4.470;2023-06-04T08:12:00;17.50;88.80
38973;DHT22;25333;50.762;4.470;2023-06-04T08:14:26;17.70;87.00
38973;DHT22;25333;50.762;4.470;2023-06-04T08:16:55;17.70;86.80
38973;DHT22;25333;50.762;4.470;2023-06-04T08:19:21;17.80;87.70
38973;DHT22;25333;50.762;4.470;2023-06-04T08:21:49;17.80;86.40
38973;DHT22;25333;50.762;4.470;2023-06-04T08:24:15;17.80;86.40
38973;DHT22;25333;50.762;4.470;2023-06-04T08:26:51;17.90;86.70
38973;DHT22;25333;50.762;4.470;2023-06-04T08:29:20;18.00;85.20
38973;DHT22;25333;50.762;4.470;2023-06-04T08:31:45;18.00;85.70
38973;DHT22;25333;50.762;4.470;2023-06-04T08:34:11;18.20;87.50
38973;DHT22;25333;50.762;4.470;2023-06-04T08:36:37;18.20;86.20
38973;DHT22;25333;50.762;4.470;2023-06-04T08:39:02;18.40;86.90
38973;DHT22;25333;50.762;4.470;2023-06-04T08:43:58;18.50;85.60
38973;DHT22;25333;50.762;4.470;2023-06-04T08:46:26;18.60;85.60
38973;DHT22;25333;50.762;4.470;2023-06-04T08:48:52;18.70;85.90
38973;DHT22;25333;50.762;4.470;2023-06-04T08:51:19;18.80;84.90
38973;DHT22;25333;50.762;4.470;2023-06-04T08:53:45;18.70;84.10
38973;DHT22;25333;50.762;4.470;2023-06-04T08:56:15;18.80;83.90
38973;DHT22;25333;50.762;4.470;2023-06-04T08:58:43;18.80;83.90
38973;DHT22;25333;50.762;4.470;2023-06-04T09:01:09;18.90;84.00
38973;DHT22;25333;50.762;4.470;2023-06-04T09:03:36;19.00;82.20
38973;DHT22;25333;50.762;4.470;2023-06-04T09:06:03;19.00;82.60
38973;DHT22;25333;50.762;4.470;2023-06-04T09:08:31;19.00;83.10
38973;DHT22;25333;50.762;4.470;2023-06-04T09:10:59;19.10;83.50
38973;DHT22;25333;50.762;4.470;2023-06-04T09:13:28;19.30;81.70
38973;DHT22;25333;50.762;4.470;2023-06-04T09:16:04;19.40;81.60
38973;DHT22;25333;50.762;4.470;2023-06-04T09:18:31;19.50;82.90
38973;DHT22;25333;50.762;4.470;2023-06-04T09:21:04;19.70;83.20
38973;DHT22;25333;50.762;4.470;2023-06-04T09:23:46;19.80;80.80
38973;DHT22;25333;50.762;4.470;2023-06-04T09:26:13;19.90;81.60
38973;DHT22;25333;50.762;4.470;2023-06-04T09:28:42;20.10;81.50
38973;DHT22;25333;50.762;4.470;2023-06-04T09:31:15;20.20;79.90
38973;DHT22;25333;50.762;4.470;2023-06-04T09:33:50;20.30;79.30
38973;DHT22;25333;50.762;4.470;2023-06-04T09:36:16;20.40;77.20
38973;DHT22;25333;50.762;4.470;2023-06-04T09:38:42;20.40;79.10
38973;DHT22;25333;50.762;4.470;2023-06-04T09:41:15;20.50;78.80
38973;DHT22;25333;50.762;4.470;2023-06-04T09:43:41;20.60;79.70
38973;DHT22;25333;50.762;4.470;2023-06-04T09:48:36;20.90;80.60
38973;DHT22;25333;50.762;4.470;2023-06-04T09:51:15;20.90;76.80
38973;DHT22;25333;50.762;4.470;2023-06-04T09:53:53;21.00;78.10
38973;DHT22;25333;50.762;4.470;2023-06-04T09:56:20;20.90;75.50
38973;DHT22;25333;50.762;4.470;2023-06-04T09:58:53;20.90;74.30
38973;DHT22;25333;50.762;4.470;2023-06-04T10:01:20;20.90;75.90
38973;DHT22;25333;50.762;4.470;2023-06-04T10:03:53;21.00;77.00
38973;DHT22;25333;50.762;4.470;2023-06-04T10:06:20;21.10;74.40
38973;DHT22;25333;50.762;4.470;2023-06-04T10:08:49;21.20;73.50
38973;DHT22;25333;50.762;4.470;2023-06-04T10:11:30;21.30;72.40
38973;DHT22;25333;50.762;4.470;2023-06-04T10:13:59;21.40;73.40
38973;DHT22;25333;50.762;4.470;2023-06-04T10:16:28;21.60;73.30
38973;DHT22;25333;50.762;4.470;2023-06-04T10:18:59;21.70;73.40
38973;DHT22;25333;50.762;4.470;2023-06-04T10:21:26;21.90;75.90
38973;DHT22;25333;50.762;4.470;2023-06-04T10:23:52;22.10;72.30
38973;DHT22;25333;50.762;4.470;2023-06-04T10:26:18;22.20;71.10
38973;DHT22;25333;50.762;4.470;2023-06-04T10:28:43;22.10;70.90
38973;DHT22;25333;50.762;4.470;2023-06-04T10:31:10;22.20;72.10
38973;DHT22;25333;50.762;4.470;2023-06-04T10:33:36;22.50;73.70
38973;DHT22;25333;50.762;4.470;2023-06-04T10:36:22;22.80;71.70
38973;DHT22;25333;50.762;4.470;2023-06-04T10:38:56;22.80;70.60
38973;DHT22;25333;50.762;4.470;2023-06-04T10:41:23;22.80;69.90
38973;DHT22;25333;50.762;4.470;2023-06-04T10:43:50;23.00;71.30
38973;DHT22;25333;50.762;4.470;2023-06-04T10:46:20;23.40;69.90
38973;DHT22;25333;50.762;4.470;2023-06-04T10:48:52;23.30;68.10
38973;DHT22;25333;50.762;4.470;2023-06-04T10:51:34;23.10;67.80
38973;DHT22;25333;50.762;4.470;2023-06-04T10:54:03;23.10;70.10
38973;DHT22;25333;50.762;4.470;2023-06-04T10:56:30;23.10;72.70
38973;DHT22;25333;50.762;4.470;2023-06-04T10:59:11;23.30;69.30
38973;DHT22;25333;50.762;4.470;2023-06-04T11:01:37;23.30;69.50
38973;DHT22;25333;50.762;4.470;2023-06-04T11:04:03;23.50;70.80
38973;DHT22;25333;50.762;4.470;2023-06-04T11:06:29;23.60;68.70
38973;DHT22;25333;50.762;4.470;2023-06-04T11:09:04;23.50;68.10
38973;DHT22;25333;50.762;4.470;2023-06-04T11:11:34;23.70;69.20
38973;DHT22;25333;50.762;4.470;2023-06-04T11:14:11;23.60;64.70
38973;DHT22;25333;50.762;4.470;2023-06-04T11:16:43;23.30;66.80
38973;DHT22;25333;50.762;4.470;2023-06-04T11:19:08;23.20;64.40
38973;DHT22;25333;50.762;4.470;2023-06-04T11:21:34;23.40;68.20
38973;DHT22;25333;50.762;4.470;2023-06-04T11:24:03;23.60;66.80
38973;DHT22;25333;50.762;4.470;2023-06-04T11:26:33;23.70;67.80
38973;DHT22;25333;50.762;4.470;2023-06-04T11:28:59;23.60;66.70
38973;DHT22;25333;50.762;4.470;2023-06-04T11:31:25;23.90;69.50
38973;DHT22;25333;50.762;4.470;2023-06-04T11:33:51;24.20;67.90
38973;DHT22;25333;50.762;4.470;2023-06-04T11:36:23;24.40;65.80
38973;DHT22;25333;50.762;4.470;2023-06-04T11:38:57;24.30;65.60
38973;DHT22;25333;50.762;4.470;2023-06-04T11:41:26;24.30;66.60
38973;DHT22;25333;50.762;4.470;2023-06-04T11:43:52;24.20;64.90
38973;DHT22;25333;50.762;4.470;2023-06-04T11:46:19;24.30;66.70
38973;DHT22;25333;50.762;4.470;2023-06-04T11:48:44;24.40;65.90
38973;DHT22;25333;50.762;4.470;2023-06-04T11:51:10;24.60;67.40
38973;DHT22;25333;50.762;4.470;2023-06-04T11:53:39;24.60;66.10
38973;DHT22;25333;50.762;4.470;2023-06-04T11:56:05;24.60;64.80
38973;DHT22;25333;50.762;4.470;2023-06-04T11:58:31;24.40;66.20
38973;DHT22;25333;50.762;4.470;2023-06-04T12:00:58;24.10;65.10
38973;DHT22;25333;50.762;4.470;2023-06-04T12:03:38;24.10;64.50
38973;DHT22;25333;50.762;4.470;2023-06-04T12:06:14;24.20;63.90
38973;DHT22;25333;50.762;4.470;2023-06-04T12:08:54;24.50;65.20
38973;DHT22;25333;50.762;4.470;2023-06-04T12:11:29;24.70;63.90
38973;DHT22;25333;50.762;4.470;2023-06-04T12:14:05;24.50;61.90
38973;DHT22;25333;50.762;4.470;2023-06-04T12:16:32;24.50;65.50
38973;DHT22;25333;50.762;4.470;2023-06-04T12:19:08;24.50;63.20
38973;DHT22;25333;50.762;4.470;2023-06-04T12:21:34;24.50;65.80
38973;DHT22;25333;50.762;4.470;2023-06-04T12:24:10;24.60;65.20
38973;DHT22;25333;50.762;4.470;2023-06-04T12:26:37;24.50;65.60
38973;DHT22;25333;50.762;4.470;2023-06-04T12:29:10;24.60;65.50
38973;DHT22;25333;50.762;4.470;2023-06-04T12:31:41;24.50;64.90
38973;DHT22;25333;50.762;4.470;2023-06-04T12:34:15;24.70;64.60
38973;DHT22;25333;50.762;4.470;2023-06-04T12:36:52;24.70;63.30
38973;DHT22;25333;50.762;4.470;2023-06-04T12:39:17;24.70;63.10
38973;DHT22;25333;50.762;4.470;2023-06-04T12:41:49;24.30;63.90
38973;DHT22;25333;50.762;4.470;2023-06-04T12:44:15;24.20;62.20
38973;DHT22;25333;50.762;4.470;2023-06-04T12:46:40;24.30;65.90
38973;DHT22;25333;50.762;4.470;2023-06-04T12:49:06;24.50;64.00
38973;DHT22;25333;50.762;4.470;2023-06-04T12:51:31;24.60;63.40
38973;DHT22;25333;50.762;4.470;2023-06-04T12:53:58;24.70;64.20
38973;DHT22;25333;50.762;4.470;2023-06-04T12:56:24;24.70;64.40
38973;DHT22;25333;50.762;4.470;2023-06-04T12:58:50;24.80;64.80
38973;DHT22;25333;50.762;4.470;2023-06-04T13:01:16;24.70;62.20
38973;DHT22;25333;50.762;4.470;2023-06-04T13:03:42;24.60;62.40
38973;DHT22;25333;50.762;4.470;2023-06-04T13:06:08;24.50;63.00
38973;DHT22;25333;50.762;4.470;2023-06-04T13:08:34;24.40;63.30
38973;DHT22;25333;50.762;4.470;2023-06-04T13:11:00;24.40;62.20
38973;DHT22;25333;50.762;4.470;2023-06-04T13:13:27;24.30;63.10
38973;DHT22;25333;50.762;4.470;2023-06-04T13:15:52;24.40;64.40
38973;DHT22;25333;50.762;4.470;2023-06-04T13:18:18;24.40;63.20
38973;DHT22;25333;50.762;4.470;2023-06-04T13:20:44;24.40;65.40
38973;DHT22;25333;50.762;4.470;2023-06-04T13:23:09;24.40;64.10
38973;DHT22;25333;50.762;4.470;2023-06-04T13:25:35;24.50;64.10
38973;DHT22;25333;50.762;4.470;2023-06-04T13:28:02;24.50;61.90
38973;DHT22;25333;50.762;4.470;2023-06-04T13:30:28;24.40;61.60
38973;DHT22;25333;50.762;4.470;2023-06-04T13:32:54;24.20;63.50
38973;DHT22;25333;50.762;4.470;2023-06-04T13:35:20;24.40;65.40
38973;DHT22;25333;50.762;4.470;2023-06-04T13:37:45;24.40;64.10
38973;DHT22;25333;50.762;4.470;2023-06-04T13:40:12;24.40;62.30
38973;DHT22;25333;50.762;4.470;2023-06-04T13:42:37;24.10;64.10
38973;DHT22;25333;50.762;4.470;2023-06-04T13:45:03;24.20;63.30
38973;DHT22;25333;50.762;4.470;2023-06-04T13:47:29;24.20;63.70
38973;DHT22;25333;50.762;4.470;2023-06-04T13:49:57;24.10;62.70
38973;DHT22;25333;50.762;4.470;2023-06-04T13:52:23;24.10;63.50
38973;DHT22;25333;50.762;4.470;2023-06-04T13:54:48;24.10;63.00
38973;DHT22;25333;50.762;4.470;2023-06-04T13:57:14;24.10;61.80
38973;DHT22;25333;50.762;4.470;2023-06-04T13:59:39;24.10;62.00
38973;DHT22;25333;50.762;4.470;2023-06-04T14:02:06;24.00;64.40
38973;DHT22;25333;50.762;4.470;2023-06-04T14:04:32;24.10;63.30
38973;DHT22;25333;50.762;4.470;2023-06-04T14:06:58;24.10;63.60
38973;DHT22;25333;50.762;4.470;2023-06-04T14:09:24;24.10;64.10
38973;DHT22;25333;50.762;4.470;2023-06-04T14:11:50;24.10;63.20
38973;DHT22;25333;50.762;4.470;2023-06-04T14:14:20;23.90;61.40
38973;DHT22;25333;50.762;4.470;2023-06-04T14:16:47;23.70;61.50
38973;DHT22;25333;50.762;4.470;2023-06-04T14:19:15;23.70;62.20
38973;DHT22;25333;50.762;4.470;2023-06-04T14:21:44;23.80;62.60
38973;DHT22;25333;50.762;4.470;2023-06-04T14:24:10;23.80;62.50
38973;DHT22;25333;50.762;4.470;2023-06-04T14:26:36;23.80;62.50
38973;DHT22;25333;50.762;4.470;2023-06-04T14:29:03;23.90;62.90
38973;DHT22;25333;50.762;4.470;2023-06-04T14:31:34;23.90;63.60
38973;DHT22;25333;50.762;4.470;2023-06-04T14:34:00;23.90;60.00
38973;DHT22;25333;50.762;4.470;2023-06-04T14:36:26;23.90;61.50
38973;DHT22;25333;50.762;4.470;2023-06-04T14:38:54;23.90;61.30
38973;DHT22;25333;50.762;4.470;2023-06-04T14:41:40;23.90;63.30
38973;DHT22;25333;50.762;4.470;2023-06-04T14:44:06;23.90;61.80
38973;DHT22;25333;50.762;4.470;2023-06-04T14:46:31;23.90;62.70
38973;DHT22;25333;50.762;4.470;2023-06-04T14:48:59;23.90;60.70
38973;DHT22;25333;50.762;4.470;2023-06-04T14:51:25;23.80;61.40
38973;DHT22;25333;50.762;4.470;2023-06-04T14:56:59;23.80;62.40
38973;DHT22;25333;50.762;4.470;2023-06-04T14:59:28;23.80;61.70
38973;DHT22;25333;50.762;4.470;2023-06-04T15:01:54;23.90;62.60
38973;DHT22;25333;50.762;4.470;2023-06-04T15:04:23;23.90;62.30
38973;DHT22;25333;50.762;4.470;2023-06-04T15:09:29;23.80;61.10
38973;DHT22;25333;50.762;4.470;2023-06-04T15:11:58;23.80;62.00
38973;DHT22;25333;50.762;4.470;2023-06-04T15:14:40;23.70;60.70
38973;DHT22;25333;50.762;4.470;2023-06-04T15:17:13;23.70;61.00
38973;DHT22;25333;50.762;4.470;2023-06-04T15:19:52;23.70;61.80
38973;DHT22;25333;50.762;4.470;2023-06-04T15:22:50;23.80;63.10
38973;DHT22;25333;50.762;4.470;2023-06-04T15:25:53;23.80;60.00
38973;DHT22;25333;50.762;4.470;2023-06-04T15:28:40;23.70;61.90
38973;DHT22;25333;50.762;4.470;2023-06-04T15:31:26;23.70;59.90
38973;DHT22;25333;50.762;4.470;2023-06-04T15:34:21;23.70;60.80
38973;DHT22;25333;50.762;4.470;2023-06-04T15:36:50;23.80;60.40
38973;DHT22;25333;50.762;4.470;2023-06-04T15:39:18;23.80;60.50
38973;DHT22;25333;50.762;4.470;2023-06-04T15:41:47;23.90;60.30
38973;DHT22;25333;50.762;4.470;2023-06-04T15:44:19;23.80;60.60
38973;DHT22;25333;50.762;4.470;2023-06-04T15:47:04;23.80;60.60
38973;DHT22;25333;50.762;4.470;2023-06-04T15:49:38;23.90;61.50
38973;DHT22;25333;50.762;4.470;2023-06-04T15:52:28;23.90;60.60
38973;DHT22;25333;50.762;4.470;2023-06-04T15:54:56;24.00;62.10
38973;DHT22;25333;50.762;4.470;2023-06-04T15:57:25;23.90;60.50
38973;DHT22;25333;50.762;4.470;2023-06-04T15:59:51;23.90;60.20
38973;DHT22;25333;50.762;4.470;2023-06-04T16:02:17;24.00;60.00
38973;DHT22;25333;50.762;4.470;2023-06-04T16:04:42;24.00;57.90
38973;DHT22;25333;50.762;4.470;2023-06-04T16:07:11;24.00;59.40
38973;DHT22;25333;50.762;4.470;2023-06-04T16:09:39;24.10;59.40
38973;DHT22;25333;50.762;4.470;2023-06-04T16:12:05;24.10;61.70
38973;DHT22;25333;50.762;4.470;2023-06-04T16:14:57;24.10;61.00
38973;DHT22;25333;50.762;4.470;2023-06-04T16:17:37;24.10;59.80
38973;DHT22;25333;50.762;4.470;2023-06-04T16:20:05;24.00;59.50
38973;DHT22;25333;50.762;4.470;2023-06-04T16:22:37;24.00;59.60
38973;DHT22;25333;50.762;4.470;2023-06-04T16:25:26;24.00;58.50
38973;DHT22;25333;50.762;4.470;2023-06-04T16:27:53;24.00;59.50
38973;DHT22;25333;50.762;4.470;2023-06-04T16:30:20;24.00;59.10
38973;DHT22;25333;50.762;4.470;2023-06-04T16:32:46;24.00;60.00
38973;DHT22;25333;50.762;4.470;2023-06-04T16:35:11;24.00;59.20
38973;DHT22;25333;50.762;4.470;2023-06-04T16:37:40;23.90;57.60
38973;DHT22;25333;50.762;4.470;2023-06-04T16:40:06;23.80;59.70
38973;DHT22;25333;50.762;4.470;2023-06-04T16:42:33;23.70;58.50
38973;DHT22;25333;50.762;4.470;2023-06-04T16:45:00;23.60;58.60
38973;DHT22;25333;50.762;4.470;2023-06-04T16:47:26;23.60;59.20
38973;DHT22;25333;50.762;4.470;2023-06-04T16:49:52;23.40;59.60
38973;DHT22;25333;50.762;4.470;2023-06-04T16:52:18;23.30;59.70
38973;DHT22;25333;50.762;4.470;2023-06-04T16:54:43;23.30;60.50
38973;DHT22;25333;50.762;4.470;2023-06-04T16:57:10;23.30;60.00
38973;DHT22;25333;50.762;4.470;2023-06-04T16:59:35;23.20;60.30
38973;DHT22;25333;50.762;4.470;2023-06-04T17:02:01;23.20;60.90
38973;DHT22;25333;50.762;4.470;2023-06-04T17:04:28;23.10;61.60
38973;DHT22;25333;50.762;4.470;2023-06-04T17:06:54;23.10;61.90
38973;DHT22;25333;50.762;4.470;2023-06-04T17:09:23;23.00;62.40
38973;DHT22;25333;50.762;4.470;2023-06-04T17:11:51;22.90;61.50
38973;DHT22;25333;50.762;4.470;2023-06-04T17:14:26;22.90;62.10
38973;DHT22;25333;50.762;4.470;2023-06-04T17:16:55;22.80;60.60
38973;DHT22;25333;50.762;4.470;2023-06-04T17:19:21;22.70;62.40
38973;DHT22;25333;50.762;4.470;2023-06-04T17:21:47;22.60;61.50
38973;DHT22;25333;50.762;4.470;2023-06-04T17:24:15;22.50;59.80
38973;DHT22;25333;50.762;4.470;2023-06-04T17:26:41;22.50;62.70
38973;DHT22;25333;50.762;4.470;2023-06-04T17:29:09;22.50;63.10
38973;DHT22;25333;50.762;4.470;2023-06-04T17:31:39;22.40;61.10
38973;DHT22;25333;50.762;4.470;2023-06-04T17:34:06;22.40;61.40
38973;DHT22;25333;50.762;4.470;2023-06-04T17:36:31;22.40;62.10
38973;DHT22;25333;50.762;4.470;2023-06-04T17:38:57;22.30;63.10
38973;DHT22;25333;50.762;4.470;2023-06-04T17:41:23;22.10;62.30
38973;DHT22;25333;50.762;4.470;2023-06-04T17:43:49;22.10;61.80
38973;DHT22;25333;50.762;4.470;2023-06-04T17:46:19;22.20;63.70
38973;DHT22;25333;50.762;4.470;2023-06-04T17:48:44;22.10;63.70
38973;DHT22;25333;50.762;4.470;2023-06-04T17:51:16;22.10;62.90
38973;DHT22;25333;50.762;4.470;2023-06-04T17:54:04;22.00;63.50
38973;DHT22;25333;50.762;4.470;2023-06-04T17:56:36;22.00;62.90
38973;DHT22;25333;50.762;4.470;2023-06-04T17:59:18;22.00;63.60
38973;DHT22;25333;50.762;4.470;2023-06-04T18:01:47;21.90;65.30
38973;DHT22;25333;50.762;4.470;2023-06-04T18:04:24;21.80;66.50
38973;DHT22;25333;50.762;4.470;2023-06-04T18:06:53;21.70;65.90
38973;DHT22;25333;50.762;4.470;2023-06-04T18:09:18;21.70;65.40
38973;DHT22;25333;50.762;4.470;2023-06-04T18:11:45;21.70;65.00
38973;DHT22;25333;50.762;4.470;2023-06-04T18:14:12;21.70;66.00
38973;DHT22;25333;50.762;4.470;2023-06-04T18:16:43;21.70;69.10
38973;DHT22;25333;50.762;4.470;2023-06-04T18:19:11;21.50;66.00
38973;DHT22;25333;50.762;4.470;2023-06-04T18:21:37;21.50;65.90
38973;DHT22;25333;50.762;4.470;2023-06-04T18:24:08;21.50;66.40
38973;DHT22;25333;50.762;4.470;2023-06-04T18:26:41;21.50;69.90
38973;DHT22;25333;50.762;4.470;2023-06-04T18:29:06;21.40;67.50
38973;DHT22;25333;50.762;4.470;2023-06-04T18:31:54;21.30;67.70
38973;DHT22;25333;50.762;4.470;2023-06-04T18:34:34;21.10;70.50
38973;DHT22;25333;50.762;4.470;2023-06-04T18:37:00;21.10;67.90
38973;DHT22;25333;50.762;4.470;2023-06-04T18:39:26;21.10;67.90
38973;DHT22;25333;50.762;4.470;2023-06-04T18:42:19;21.10;70.50
38973;DHT22;25333;50.762;4.470;2023-06-04T18:44:47;21.00;70.20
38973;DHT22;25333;50.762;4.470;2023-06-04T18:47:13;20.90;70.50
38973;DHT22;25333;50.762;4.470;2023-06-04T18:49:38;20.80;71.50
38973;DHT22;25333;50.762;4.470;2023-06-04T18:52:04;20.60;69.90
38973;DHT22;25333;50.762;4.470;2023-06-04T18:54:30;20.60;68.20
38973;DHT22;25333;50.762;4.470;2023-06-04T18:56:57;20.60;71.20
38973;DHT22;25333;50.762;4.470;2023-06-04T18:59:22;20.50;69.80
38973;DHT22;25333;50.762;4.470;2023-06-04T19:01:51;20.50;70.10
38973;DHT22;25333;50.762;4.470;2023-06-04T19:04:16;20.40;73.10
38973;DHT22;25333;50.762;4.470;2023-06-04T19:06:42;20.30;71.00
38973;DHT22;25333;50.762;4.470;2023-06-04T19:09:08;20.20;70.50
38973;DHT22;25333;50.762;4.470;2023-06-04T19:11:37;20.20;71.50
38973;DHT22;25333;50.762;4.470;2023-06-04T19:14:06;20.10;70.40
38973;DHT22;25333;50.762;4.470;2023-06-04T19:16:31;20.10;73.70
38973;DHT22;25333;50.762;4.470;2023-06-04T19:18:57;19.90;70.90
38973;DHT22;25333;50.762;4.470;2023-06-04T19:21:23;19.90;74.30
38973;DHT22;25333;50.762;4.470;2023-06-04T19:23:48;19.80;71.20
38973;DHT22;25333;50.762;4.470;2023-06-04T19:26:36;19.80;73.80
38973;DHT22;25333;50.762;4.470;2023-06-04T19:29:02;19.70;74.40
38973;DHT22;25333;50.762;4.470;2023-06-04T19:31:27;19.60;74.10
38973;DHT22;25333;50.762;4.470;2023-06-04T19:33:54;19.50;75.60
38973;DHT22;25333;50.762;4.470;2023-06-04T19:36:20;19.40;76.30
38973;DHT22;25333;50.762;4.470;2023-06-04T19:38:46;19.20;77.70
38973;DHT22;25333;50.762;4.470;2023-06-04T19:41:13;18.90;77.80
38973;DHT22;25333;50.762;4.470;2023-06-04T19:43:39;18.80;77.70
38973;DHT22;25333;50.762;4.470;2023-06-04T19:46:04;18.70;77.80
38973;DHT22;25333;50.762;4.470;2023-06-04T19:48:30;18.50;78.40
38973;DHT22;25333;50.762;4.470;2023-06-04T19:50:58;18.50;79.50
38973;DHT22;25333;50.762;4.470;2023-06-04T19:53:23;18.30;79.20
38973;DHT22;25333;50.762;4.470;2023-06-04T19:55:49;18.20;79.10
38973;DHT22;25333;50.762;4.470;2023-06-04T19:58:15;18.20;79.90
38973;DHT22;25333;50.762;4.470;2023-06-04T20:00:44;18.10;80.20
38973;DHT22;25333;50.762;4.470;2023-06-04T20:03:16;18.20;80.10
38973;DHT22;25333;50.762;4.470;2023-06-04T20:05:50;18.20;81.10
38973;DHT22;25333;50.762;4.470;2023-06-04T20:08:16;18.00;82.00
38973;DHT22;25333;50.762;4.470;2023-06-04T20:10:42;17.90;82.40
38973;DHT22;25333;50.762;4.470;2023-06-04T20:13:08;17.80;82.90
38973;DHT22;25333;50.762;4.470;2023-06-04T20:15:33;17.80;84.20
38973;DHT22;25333;50.762;4.470;2023-06-04T20:18:00;17.80;85.30
38973;DHT22;25333;50.762;4.470;2023-06-04T20:20:27;17.80;84.90
38973;DHT22;25333;50.762;4.470;2023-06-04T20:22:52;17.90;84.90
38973;DHT22;25333;50.762;4.470;2023-06-04T20:25:18;17.90;85.10
38973;DHT22;25333;50.762;4.470;2023-06-04T20:27:49;17.70;85.70
38973;DHT22;25333;50.762;4.470;2023-06-04T20:30:14;17.60;87.10
38973;DHT22;25333;50.762;4.470;2023-06-04T20:32:40;17.60;87.40
38973;DHT22;25333;50.762;4.470;2023-06-04T20:35:08;17.60;87.70
38973;DHT22;25333;50.762;4.470;2023-06-04T20:37:34;17.50;87.40
38973;DHT22;25333;50.762;4.470;2023-06-04T20:40:04;17.40;88.00
38973;DHT22;25333;50.762;4.470;2023-06-04T20:42:30;17.30;89.10